createdAt,value
2019-03-15T00:00:43.821Z,79.94
2019-03-15T00:02:47.975Z,78.89
2019-03-15T00:03:48.217Z,76.99
2019-03-15T00:05:52.381Z,76.32
2019-03-15T00:06:52.621Z,76.61
2019-03-15T00:08:45.701Z,82.12
2019-03-15T00:09:45.936Z,81.84
2019-03-15T00:11:50.112Z,84.30
2019-03-15T00:12:50.350Z,80.69
2019-03-15T00:14:54.611Z,79.08
2019-03-15T00:15:54.802Z,77.09
2019-03-15T00:17:58.907Z,78.85
2019-03-15T00:18:59.144Z,76.90
2019-03-15T00:21:03.317Z,77.24
2019-03-15T00:22:03.550Z,76.95
2019-03-15T00:24:07.701Z,75.81
2019-03-15T00:25:07.934Z,76.10
2019-03-15T00:27:12.108Z,76.48
2019-03-15T00:28:12.348Z,76.10
2019-03-15T00:30:16.521Z,76.67
2019-03-15T00:31:16.758Z,76.57
2019-03-15T00:33:20.915Z,72.88
2019-03-15T00:34:21.154Z,72.59
2019-03-15T00:36:25.401Z,74.30
2019-03-15T00:37:25.568Z,72.88
2019-03-15T00:39:18.657Z,71.07
2019-03-15T00:40:18.884Z,69.27
2019-03-15T00:42:23.060Z,67.27
2019-03-15T00:43:23.300Z,68.79
2019-03-15T00:45:27.469Z,68.13
2019-03-15T00:46:27.708Z,66.33
2019-03-15T00:48:31.862Z,68.79
2019-03-15T00:49:32.105Z,69.65
2019-03-15T00:51:37.280Z,69.55
2019-03-15T00:52:37.518Z,71.83
2019-03-15T00:54:41.672Z,70.50
2019-03-15T00:55:41.910Z,69.93
2019-03-15T00:57:46.081Z,68.79
2019-03-15T00:58:46.327Z,70.50
2019-03-15T01:00:50.498Z,70.31
2019-03-15T01:01:50.743Z,69.46
2019-03-15T01:03:54.888Z,67.65
2019-03-15T01:04:55.177Z,68.13
2019-03-15T01:06:59.299Z,70.69
2019-03-15T01:07:59.541Z,68.60
2019-03-15T01:10:03.699Z,68.98
2019-03-15T01:11:03.929Z,66.33
2019-03-15T01:13:08.098Z,68.13
2019-03-15T01:14:08.334Z,65.95
2019-03-15T01:16:12.512Z,66.99
2019-03-15T01:17:12.749Z,65.00
2019-03-15T01:19:05.828Z,65.09
2019-03-15T01:20:06.067Z,65.19
2019-03-15T01:22:10.241Z,63.01
2019-03-15T01:23:10.478Z,63.86
2019-03-15T01:25:14.630Z,63.57
2019-03-15T01:26:14.871Z,63.48
2019-03-15T01:28:19.047Z,64.05
2019-03-15T01:29:19.292Z,63.95
2019-03-15T01:31:23.465Z,64.52
2019-03-15T01:32:23.700Z,64.05
2019-03-15T01:34:27.855Z,63.76
2019-03-15T01:35:28.089Z,63.20
2019-03-15T01:37:32.263Z,63.01
2019-03-15T01:38:32.503Z,65.66
2019-03-15T01:40:36.657Z,65.09
2019-03-15T01:41:36.889Z,65.19
2019-03-15T01:43:41.062Z,65.95
2019-03-15T01:44:41.303Z,63.76
2019-03-15T01:46:45.478Z,64.43
2019-03-15T01:47:45.708Z,62.72
2019-03-15T01:49:49.857Z,62.24
2019-03-15T01:50:50.396Z,62.82
2019-03-15T01:52:54.266Z,65.00
2019-03-15T01:53:54.545Z,61.68
2019-03-15T01:55:58.653Z,64.52
2019-03-15T01:56:58.892Z,64.81
2019-03-15T01:58:51.992Z,63.48
2019-03-15T01:59:52.229Z,65.41
2019-03-15T02:01:56.853Z,61.11
2019-03-15T02:02:56.617Z,59.88
2019-03-15T02:05:00.788Z,58.54
2019-03-15T02:06:01.024Z,57.12
2019-03-15T02:08:05.203Z,55.04
2019-03-15T02:09:05.434Z,53.70
2019-03-15T02:11:09.583Z,51.62
2019-03-15T02:12:09.823Z,53.23
2019-03-15T02:14:14.008Z,52.19
2019-03-15T02:15:14.234Z,50.95
2019-03-15T02:17:18.422Z,49.72
2019-03-15T02:18:18.790Z,50.76
2019-03-15T02:20:22.812Z,49.34
2019-03-15T02:21:23.048Z,48.68
2019-03-15T02:23:27.220Z,48.58
2019-03-15T02:24:27.456Z,47.92
2019-03-15T02:26:31.694Z,50.29
2019-03-15T02:27:31.841Z,50.67
2019-03-15T02:29:24.945Z,50.86
2019-03-15T02:30:25.184Z,51.90
2019-03-15T02:32:29.341Z,52.47
2019-03-15T02:33:29.569Z,51.52
2019-03-15T02:35:33.743Z,48.01
2019-03-15T02:36:33.975Z,48.96
2019-03-15T02:38:38.148Z,50.86
2019-03-15T02:39:38.388Z,50.57
2019-03-15T02:41:42.570Z,48.77
2019-03-15T02:42:42.772Z,50.20
2019-03-15T02:44:46.952Z,53.52
2019-03-15T02:45:47.180Z,54.94
2019-03-15T02:47:51.324Z,56.65
2019-03-15T02:48:51.563Z,55.89
2019-03-15T02:50:56.288Z,55.25
2019-03-15T02:51:55.989Z,55.35
2019-03-15T02:54:00.861Z,56.77
2019-03-15T02:55:00.440Z,55.04
2019-03-15T02:57:04.579Z,54.49
2019-03-15T02:58:04.763Z,55.22
2019-03-15T03:00:08.937Z,52.28
2019-03-15T03:01:09.184Z,55.51
2019-03-15T03:03:13.345Z,54.56
2019-03-15T03:04:14.273Z,53.61
2019-03-15T03:06:20.436Z,53.99
2019-03-15T03:07:18.151Z,55.79
2019-03-15T03:09:11.257Z,55.06
2019-03-15T03:10:11.488Z,58.20
2019-03-15T03:12:16.769Z,56.87
2019-03-15T03:13:15.876Z,58.95
2019-03-15T03:15:20.053Z,62.94
2019-03-15T03:16:20.288Z,62.66
2019-03-15T03:18:24.470Z,62.46
2019-03-15T03:19:24.704Z,60.38
2019-03-15T03:21:28.858Z,59.43
2019-03-15T03:22:29.094Z,58.39
2019-03-15T03:24:33.265Z,60.19
2019-03-15T03:25:33.499Z,59.71
2019-03-15T03:27:37.651Z,58.86
2019-03-15T03:28:37.886Z,58.29
2019-03-15T03:30:42.104Z,55.73
2019-03-15T03:31:44.289Z,53.26
2019-03-15T03:33:46.469Z,52.59
2019-03-15T03:34:46.707Z,51.83
2019-03-15T03:36:52.307Z,55.63
2019-03-15T03:37:51.098Z,55.44
2019-03-15T03:39:55.272Z,54.68
2019-03-15T03:40:56.389Z,55.82
2019-03-15T03:42:59.653Z,50.60
2019-03-15T03:43:59.895Z,44.43
2019-03-15T03:46:04.069Z,36.82
2019-03-15T03:47:04.304Z,34.54
2019-03-15T03:48:57.385Z,31.21
2019-03-15T03:49:57.623Z,32.17
2019-03-15T03:52:02.672Z,31.88
2019-03-15T03:53:02.035Z,34.92
2019-03-15T03:55:06.212Z,40.99
2019-03-15T03:56:06.481Z,42.63
2019-03-15T03:58:10.605Z,46.90
2019-03-15T03:59:10.846Z,47.56
2019-03-15T04:01:15.015Z,47.94
2019-03-15T04:02:15.250Z,51.45
2019-03-15T04:04:19.423Z,45.09
2019-03-15T04:05:19.679Z,43.57
2019-03-15T04:07:23.816Z,49.84
2019-03-15T04:08:24.120Z,49.46
2019-03-15T04:10:28.228Z,46.61
2019-03-15T04:11:28.466Z,40.92
2019-03-15T04:13:32.616Z,35.31
2019-03-15T04:14:32.859Z,34.63
2019-03-15T04:16:37.028Z,27.51
2019-03-15T04:17:37.265Z,23.05
2019-03-15T04:19:41.453Z,23.15
2019-03-15T04:20:42.454Z,24.48
2019-03-15T04:22:45.833Z,24.29
2019-03-15T04:23:46.070Z,24.29
2019-03-15T04:25:50.253Z,22.39
2019-03-15T04:26:50.475Z,21.44
2019-03-15T04:28:43.552Z,19.54
2019-03-15T04:29:43.789Z,18.98
2019-03-15T04:31:47.960Z,18.31
2019-03-15T04:32:48.196Z,19.83
2019-03-15T04:34:52.372Z,18.60
2019-03-15T04:35:52.615Z,19.64
2019-03-15T04:37:56.755Z,21.63
2019-03-15T04:38:56.995Z,25.14
2019-03-15T04:41:01.168Z,28.66
2019-03-15T04:42:01.394Z,24.86
2019-03-15T04:44:05.563Z,28.37
2019-03-15T04:45:05.796Z,27.70
2019-03-15T04:47:10.071Z,27.99
2019-03-15T04:48:10.207Z,29.79
2019-03-15T04:50:14.385Z,34.34
2019-03-15T04:51:14.624Z,33.30
2019-03-15T04:53:18.766Z,39.28
2019-03-15T04:54:19.011Z,38.90
2019-03-15T04:56:23.182Z,35.30
2019-03-15T04:57:23.420Z,36.05
2019-03-15T04:59:16.495Z,34.63
2019-03-15T05:00:16.733Z,32.64
2019-03-15T05:02:20.911Z,34.06
2019-03-15T05:03:21.132Z,35.86
2019-03-15T05:05:25.301Z,36.82
2019-03-15T05:06:25.541Z,41.56
2019-03-15T05:08:29.694Z,36.24
2019-03-15T05:09:29.929Z,36.91
2019-03-15T05:11:34.106Z,37.01
2019-03-15T05:12:34.342Z,35.77
2019-03-15T05:14:38.494Z,37.38
2019-03-15T05:15:38.732Z,36.05
2019-03-15T05:17:42.900Z,38.62
2019-03-15T05:18:43.142Z,39.76
2019-03-15T05:20:47.313Z,40.33
2019-03-15T05:21:47.548Z,41.18
2019-03-15T05:23:51.699Z,40.14
2019-03-15T05:24:51.934Z,39.66
2019-03-15T05:26:56.107Z,42.51
2019-03-15T05:27:56.348Z,42.32
2019-03-15T05:30:00.626Z,44.31
2019-03-15T05:31:00.732Z,44.60
2019-03-15T05:33:04.906Z,46.49
2019-03-15T05:34:05.132Z,46.69
2019-03-15T05:36:09.316Z,48.96
2019-03-15T05:37:09.554Z,48.41
2019-03-15T05:39:02.657Z,49.93
2019-03-15T05:40:02.899Z,46.69
2019-03-15T05:42:07.043Z,50.20
2019-03-15T05:43:07.286Z,52.40
2019-03-15T05:45:11.458Z,53.35
2019-03-15T05:46:11.693Z,54.02
2019-03-15T05:48:15.870Z,51.74
2019-03-15T05:49:16.097Z,49.84
2019-03-15T05:51:20.265Z,43.84
2019-03-15T05:52:20.483Z,43.01
2019-03-15T05:54:25.670Z,46.42
2019-03-15T05:55:25.907Z,48.51
2019-03-15T05:57:30.070Z,44.81
2019-03-15T05:58:30.293Z,43.27
2019-03-15T06:00:34.470Z,43.74
2019-03-15T06:01:34.745Z,41.67
2019-03-15T06:03:48.668Z,43.01
2019-03-15T06:04:39.124Z,43.48
2019-03-15T06:06:43.294Z,45.57
2019-03-15T06:07:43.532Z,50.89
2019-03-15T06:09:47.678Z,49.37
2019-03-15T06:10:47.920Z,49.84
2019-03-15T06:12:52.119Z,49.08
2019-03-15T06:13:52.315Z,48.99
2019-03-15T06:15:45.688Z,54.97
2019-03-15T06:16:45.896Z,53.07
2019-03-15T06:18:38.974Z,55.25
2019-03-15T06:19:39.204Z,55.35
2019-03-15T06:21:44.399Z,56.68
2019-03-15T06:22:44.627Z,56.68
2019-03-15T06:24:48.756Z,51.83
2019-03-15T06:25:48.986Z,48.22
2019-03-15T06:27:54.249Z,51.64
2019-03-15T06:28:54.392Z,45.85
2019-03-15T06:30:58.572Z,51.36
2019-03-15T06:31:58.816Z,53.35
2019-03-15T06:34:02.927Z,52.50
2019-03-15T06:35:03.160Z,53.45
2019-03-15T06:37:07.329Z,59.52
2019-03-15T06:38:07.568Z,58.39
2019-03-15T06:40:13.547Z,59.71
2019-03-15T06:41:14.351Z,58.29
2019-03-15T06:43:16.106Z,58.39
2019-03-15T06:44:16.347Z,60.19
2019-03-15T06:46:20.530Z,60.57
2019-03-15T06:47:20.794Z,59.91
2019-03-15T06:49:16.548Z,61.04
2019-03-15T06:50:15.101Z,63.79
2019-03-15T06:52:19.265Z,64.27
2019-03-15T06:53:19.483Z,63.32
2019-03-15T06:55:23.642Z,62.56
2019-03-15T06:56:23.883Z,63.42
2019-03-15T06:58:28.034Z,63.51
2019-03-15T06:59:28.264Z,64.94
2019-03-15T07:01:33.469Z,62.40
2019-03-15T07:02:33.705Z,62.27
2019-03-15T07:04:38.664Z,60.03
2019-03-15T07:05:38.881Z,59.43
2019-03-15T07:07:43.156Z,57.81
2019-03-15T07:08:43.337Z,55.44
2019-03-15T07:10:47.490Z,54.21
2019-03-15T07:11:47.724Z,55.54
2019-03-15T07:13:53.122Z,52.78
2019-03-15T07:14:53.350Z,46.23
2019-03-15T07:16:59.381Z,45.95
2019-03-15T07:17:59.660Z,46.80
2019-03-15T07:20:03.982Z,43.38
2019-03-15T07:21:04.207Z,41.20
2019-03-15T07:23:08.374Z,43.10
2019-03-15T07:24:08.611Z,42.63
2019-03-15T07:26:12.757Z,40.92
2019-03-15T07:27:13.605Z,40.06
2019-03-15T07:29:07.133Z,39.87
2019-03-15T07:30:07.327Z,38.92
2019-03-15T07:32:12.493Z,35.31
2019-03-15T07:33:12.727Z,34.94
2019-03-15T07:35:17.003Z,29.52
2019-03-15T07:36:17.117Z,29.24
2019-03-15T07:38:22.318Z,25.15
2019-03-15T07:39:22.532Z,22.97
2019-03-15T07:41:28.403Z,21.64
2019-03-15T07:42:28.629Z,20.60
2019-03-15T07:44:32.789Z,19.27
2019-03-15T07:45:33.024Z,18.60
2019-03-15T07:47:37.244Z,19.74
2019-03-15T07:48:37.627Z,17.27
2019-03-15T07:50:41.580Z,13.76
2019-03-15T07:51:41.770Z,14.52
2019-03-15T07:53:45.941Z,14.43
2019-03-15T07:54:46.172Z,13.00
2019-03-15T07:56:50.322Z,12.53
2019-03-15T07:57:50.559Z,12.53
2019-03-15T07:59:55.742Z,11.30
2019-03-15T08:00:55.979Z,11.49
2019-03-15T08:03:00.161Z,9.78
2019-03-15T08:04:00.848Z,9.01
2019-03-15T08:06:04.733Z,8.92
2019-03-15T08:07:04.760Z,9.78
2019-03-15T08:08:57.845Z,9.11
2019-03-15T08:09:58.077Z,8.45
2019-03-15T08:12:02.227Z,6.74
2019-03-15T08:13:02.446Z,8.54
2019-03-15T08:15:06.791Z,8.92
2019-03-15T08:16:07.039Z,8.73
2019-03-15T08:18:11.194Z,8.35
2019-03-15T08:19:11.434Z,7.97
2019-03-15T08:21:15.587Z,9.49
2019-03-15T08:22:15.809Z,8.26
2019-03-15T08:24:19.989Z,8.16
2019-03-15T08:25:20.231Z,8.35
2019-03-15T08:27:24.426Z,11.10
2019-03-15T08:28:24.645Z,10.25
2019-03-15T08:30:28.810Z,7.68
2019-03-15T08:31:29.046Z,7.12
2019-03-15T08:33:33.212Z,8.35
2019-03-15T08:34:33.461Z,8.54
2019-03-15T08:36:37.605Z,9.20
2019-03-15T08:37:37.816Z,8.35
2019-03-15T08:39:42.112Z,7.31
2019-03-15T08:40:42.345Z,7.12
2019-03-15T08:42:46.514Z,6.93
2019-03-15T08:43:46.813Z,8.16
2019-03-15T08:45:50.894Z,9.97
2019-03-15T08:46:51.149Z,9.49
2019-03-15T08:48:44.256Z,8.64
2019-03-15T08:49:44.470Z,6.07
2019-03-15T08:51:48.642Z,5.79
2019-03-15T08:52:48.863Z,4.93
2019-03-15T08:55:04.597Z,4.08
2019-03-15T08:55:53.263Z,4.27
2019-03-15T08:57:57.399Z,5.69
2019-03-15T08:58:58.142Z,6.64
2019-03-15T09:01:01.761Z,6.83
2019-03-15T09:02:02.014Z,6.55
2019-03-15T09:04:06.150Z,8.16
2019-03-15T09:05:06.407Z,8.64
2019-03-15T09:07:11.066Z,7.03
2019-03-15T09:11:16.639Z,4.17
2019-03-15T09:14:21.523Z,3.22
